Time;durP1;ratioP1;P1;durP2;ratioP2;P2;SDS_P1;SDS_P2;PMS_P1;PMS_P2;Temp;Humidity;BMP_temperature;BMP_pressure;BME280_temperature;BME280_humidity;BME280_pressure;Samples;Min_cycle;Max_cycle;Signal;HPM_P1;HPM_P2
2021/06/22 00:00:29;;;;;;;26.60;12.02;;;;;;;;;;5008771;28;20213;-70
2021/06/22 00:02:54;;;;;;;19.73;11.52;;;;;;;;;;4985912;28;20214;-70
2021/06/22 00:05:22;;;;;;;25.25;12.77;;;;;;;;;;4994458;28;20553;-70
2021/06/22 00:07:49;;;;;;;26.73;13.27;;;;;;;;;;4985192;28;20282;-71
2021/06/22 00:10:17;;;;;;;30.48;12.30;;;;;;;;;;4995312;28;20220;-70
2021/06/22 00:12:43;;;;;;;23.05;12.60;;;;;;;;;;4994708;28;20187;-70
2021/06/22 00:15:11;;;;;;;28.63;13.32;;;;;;;;;;4985970;28;20222;-71
2021/06/22 00:17:37;;;;;;;29.42;13.43;;;;;;;;;;4994299;28;20274;-71
2021/06/22 00:20:05;;;;;;;25.42;12.00;;;;;;;;;;4988894;28;20278;-71
2021/06/22 00:22:30;;;;;;;30.02;12.82;;;;;;;;;;4992960;28;20219;-70
2021/06/22 00:24:55;;;;;;;29.67;13.40;;;;;;;;;;4988427;28;20198;-71
2021/06/22 00:27:21;;;;;;;28.08;11.88;;;;;;;;;;4992526;28;20257;-71
2021/06/22 00:29:50;;;;;;;26.40;14.20;;;;;;;;;;4986771;28;20202;-70
2021/06/22 00:32:15;;;;;;;31.00;13.00;;;;;;;;;;4991224;28;20269;-70
2021/06/22 00:34:40;;;;;;;24.42;12.60;;;;;;;;;;4989572;28;20224;-70
2021/06/22 00:37:06;;;;;;;29.50;12.50;;;;;;;;;;4994197;28;20195;-70
2021/06/22 00:39:31;;;;;;;23.85;12.63;;;;;;;;;;4990805;28;20198;-70
2021/06/22 00:41:57;;;;;;;23.60;11.63;;;;;;;;;;4994824;28;20214;-70
2021/06/22 00:44:22;;;;;;;27.35;12.75;;;;;;;;;;4992632;28;20186;-70
2021/06/22 00:46:47;;;;;;;21.75;11.95;;;;;;;;;;4986203;28;20277;-70
2021/06/22 00:49:13;;;;;;;28.88;12.05;;;;;;;;;;4995873;28;20233;-70
2021/06/22 00:51:38;;;;;;;25.35;12.15;;;;;;;;;;4985797;28;20202;-70
2021/06/22 00:54:04;;;;;;;18.55;11.98;;;;;;;;;;4994862;28;20655;-70
2021/06/22 00:56:31;;;;;;;25.50;11.68;;;;;;;;;;4984885;28;20223;-70
2021/06/22 00:58:57;;;;;;;30.95;12.38;;;;;;;;;;4997838;28;20191;-70
2021/06/22 01:01:22;;;;;;;26.65;12.70;;;;;;;;;;4984439;28;20263;-71
2021/06/22 01:03:47;;;;;;;28.35;12.68;;;;;;;;;;5016727;28;20447;-70
2021/06/22 01:06:13;;;;;;;28.92;12.02;;;;;;;;;;4989135;28;20693;-71
2021/06/22 01:08:38;;;;;;;22.73;12.38;;;;;;;;;;4999237;28;20650;-71
2021/06/22 01:11:04;;;;;;;25.35;13.20;;;;;;;;;;4989930;28;20195;-70
2021/06/22 01:13:29;;;;;;;34.95;13.25;;;;;;;;;;5000947;28;20195;-71
2021/06/22 01:15:55;;;;;;;24.52;12.95;;;;;;;;;;4997779;28;20568;-71
2021/06/22 01:18:20;;;;;;;27.05;12.65;;;;;;;;;;4989164;28;20195;-70
2021/06/22 01:20:46;;;;;;;29.52;13.40;;;;;;;;;;4999567;28;20295;-71
2021/06/22 01:23:11;;;;;;;29.67;12.98;;;;;;;;;;4989418;28;20219;-70
2021/06/22 01:25:37;;;;;;;23.80;12.77;;;;;;;;;;4998121;28;20214;-70
2021/06/22 01:28:03;;;;;;;23.17;12.10;;;;;;;;;;4989762;28;20201;-70
2021/06/22 01:30:30;;;;;;;24.80;13.15;;;;;;;;;;4994196;28;20183;-70
2021/06/22 01:33:00;;;;;;;25.55;12.98;;;;;;;;;;4990984;28;20201;-71
2021/06/22 01:35:27;;;;;;;25.17;12.60;;;;;;;;;;4996990;28;20299;-70
2021/06/22 01:37:59;;;;;;;22.25;11.18;;;;;;;;;;4991909;28;20587;-70
2021/06/22 01:40:26;;;;;;;22.50;11.82;;;;;;;;;;4997232;28;20623;-70
2021/06/22 01:42:51;;;;;;;21.05;12.73;;;;;;;;;;4987459;28;20207;-71
2021/06/22 01:45:17;;;;;;;26.48;12.48;;;;;;;;;;4994769;28;20237;-69
2021/06/22 01:47:44;;;;;;;22.17;11.30;;;;;;;;;;4998242;28;20185;-71
2021/06/22 01:50:11;;;;;;;20.77;12.30;;;;;;;;;;4989911;28;20701;-71
2021/06/22 01:52:37;;;;;;;22.60;11.65;;;;;;;;;;5000368;28;20179;-71
2021/06/22 01:55:46;;;;;;;19.05;11.52;;;;;;;;;;4989054;28;20195;-71
2021/06/22 01:57:52;;;;;;;25.48;11.52;;;;;;;;;;4997042;28;20667;-71
2021/06/22 02:00:18;;;;;;;23.15;12.93;;;;;;;;;;4987408;28;20219;-71
2021/06/22 02:02:44;;;;;;;17.92;11.27;;;;;;;;;;4996876;28;20210;-71
2021/06/22 02:05:10;;;;;;;21.85;12.13;;;;;;;;;;4988852;28;20636;-70
2021/06/22 02:07:35;;;;;;;19.35;11.15;;;;;;;;;;4998578;28;20201;-71
2021/06/22 02:10:01;;;;;;;25.50;11.75;;;;;;;;;;4989485;28;21907;-71
2021/06/22 02:12:26;;;;;;;22.70;11.73;;;;;;;;;;4994961;28;20192;-71
2021/06/22 02:14:51;;;;;;;23.52;11.65;;;;;;;;;;4990674;28;20187;-71
2021/06/22 02:17:17;;;;;;;24.92;11.45;;;;;;;;;;4996732;28;20195;-71
2021/06/22 02:19:42;;;;;;;20.38;11.45;;;;;;;;;;4992317;28;20187;-71
2021/06/22 02:22:08;;;;;;;17.67;11.05;;;;;;;;;;4990708;28;20196;-71
2021/06/22 02:24:33;;;;;;;24.90;11.38;;;;;;;;;;5010991;28;20285;-71
2021/06/22 02:26:58;;;;;;;20.25;10.88;;;;;;;;;;4989078;28;20532;-71
2021/06/22 02:29:24;;;;;;;17.80;10.73;;;;;;;;;;4995798;28;20194;-71
2021/06/22 02:31:49;;;;;;;18.48;10.80;;;;;;;;;;4985952;28;20191;-71
2021/06/22 02:34:14;;;;;;;18.73;10.27;;;;;;;;;;4995718;28;20235;-71
2021/06/22 02:36:40;;;;;;;20.77;11.25;;;;;;;;;;4987765;28;20187;-71
2021/06/22 02:39:05;;;;;;;20.52;11.23;;;;;;;;;;4997309;28;20201;-71
2021/06/22 02:41:31;;;;;;;22.90;10.60;;;;;;;;;;4989386;28;20191;-71
2021/06/22 02:43:56;;;;;;;20.17;10.13;;;;;;;;;;4995100;28;20203;-71
2021/06/22 02:46:21;;;;;;;21.42;11.85;;;;;;;;;;4987230;28;25687;-71
2021/06/22 02:48:47;;;;;;;24.05;11.45;;;;;;;;;;4999574;28;20306;-71
2021/06/22 02:51:12;;;;;;;19.63;10.80;;;;;;;;;;4994856;28;20314;-71
2021/06/22 02:53:37;;;;;;;23.95;11.10;;;;;;;;;;4989175;28;20193;-71
2021/06/22 02:56:03;;;;;;;25.13;11.90;;;;;;;;;;4997535;28;21799;-71
2021/06/22 02:58:28;;;;;;;19.77;11.07;;;;;;;;;;4990510;28;20551;-71
2021/06/22 03:00:54;;;;;;;17.38;11.07;;;;;;;;;;4995645;28;20589;-71
2021/06/22 03:03:19;;;;;;;20.02;10.50;;;;;;;;;;4989149;28;20213;-71
2021/06/22 03:05:44;;;;;;;18.90;10.90;;;;;;;;;;4995668;28;20288;-71
2021/06/22 03:08:10;;;;;;;27.45;10.30;;;;;;;;;;4987581;28;20688;-71
2021/06/22 03:10:35;;;;;;;20.08;10.93;;;;;;;;;;4993596;28;20196;-71
2021/06/22 03:13:00;;;;;;;16.85;9.35;;;;;;;;;;4987247;28;20195;-71
2021/06/22 03:15:26;;;;;;;18.33;9.80;;;;;;;;;;4994891;28;20222;-71
2021/06/22 03:17:52;;;;;;;17.58;10.23;;;;;;;;;;4988429;28;20191;-71
2021/06/22 03:20:18;;;;;;;24.08;10.70;;;;;;;;;;4995672;28;20202;-71
2021/06/22 03:22:44;;;;;;;16.85;9.57;;;;;;;;;;4995931;28;20195;-71
2021/06/22 03:25:10;;;;;;;20.95;10.45;;;;;;;;;;4985940;28;20190;-69
2021/06/22 03:27:36;;;;;;;21.60;10.45;;;;;;;;;;4995676;28;20186;-71
2021/06/22 03:30:04;;;;;;;22.27;10.95;;;;;;;;;;4987715;28;20226;-71
2021/06/22 03:32:30;;;;;;;17.98;10.57;;;;;;;;;;4996843;28;20269;-69
2021/06/22 03:34:55;;;;;;;21.67;9.88;;;;;;;;;;4985940;28;20279;-71
2021/06/22 03:37:21;;;;;;;19.95;10.40;;;;;;;;;;4996583;28;20233;-71
2021/06/22 03:39:47;;;;;;;23.10;10.13;;;;;;;;;;4988851;28;20213;-71
2021/06/22 03:42:13;;;;;;;21.52;11.20;;;;;;;;;;5009861;28;20754;-71
2021/06/22 03:44:39;;;;;;;16.67;10.18;;;;;;;;;;4988552;28;20437;-71
2021/06/22 03:47:04;;;;;;;20.85;10.40;;;;;;;;;;4996655;28;20199;-71
2021/06/22 03:49:31;;;;;;;20.00;9.48;;;;;;;;;;4987945;28;20356;-71
2021/06/22 03:51:56;;;;;;;20.90;10.60;;;;;;;;;;4997489;28;20194;-71
2021/06/22 03:54:22;;;;;;;13.45;9.35;;;;;;;;;;4996369;28;20190;-71
2021/06/22 03:56:47;;;;;;;19.30;10.68;;;;;;;;;;4987850;28;20194;-70
2021/06/22 03:59:13;;;;;;;20.92;10.40;;;;;;;;;;4993775;28;20214;-71
2021/06/22 04:01:38;;;;;;;20.55;10.63;;;;;;;;;;4987621;28;20214;-71
2021/06/22 04:04:04;;;;;;;22.38;10.18;;;;;;;;;;4993315;28;20232;-70
2021/06/22 04:06:29;;;;;;;16.25;9.68;;;;;;;;;;4987095;28;20193;-71
2021/06/22 04:08:54;;;;;;;19.60;10.02;;;;;;;;;;4995789;28;20191;-70
2021/06/22 04:11:21;;;;;;;25.35;10.75;;;;;;;;;;4985836;28;20191;-70
2021/06/22 04:13:46;;;;;;;19.85;10.68;;;;;;;;;;4995765;28;20195;-71
2021/06/22 04:16:12;;;;;;;19.30;9.60;;;;;;;;;;4987000;28;20256;-71
2021/06/22 04:18:37;;;;;;;18.60;10.15;;;;;;;;;;4993776;28;20658;-71
2021/06/22 04:21:03;;;;;;;19.35;10.25;;;;;;;;;;4989474;28;20198;-70
2021/06/22 04:23:28;;;;;;;20.25;10.13;;;;;;;;;;4993352;28;20229;-71
2021/06/22 04:25:53;;;;;;;22.63;9.50;;;;;;;;;;4995534;28;20680;-71
2021/06/22 04:28:19;;;;;;;19.67;9.15;;;;;;;;;;4986910;28;20236;-70
2021/06/22 04:30:45;;;;;;;19.13;9.18;;;;;;;;;;4992804;28;20316;-71
2021/06/22 04:33:11;;;;;;;24.15;10.50;;;;;;;;;;4987724;28;20273;-71
2021/06/22 04:35:36;;;;;;;22.60;9.07;;;;;;;;;;4998969;28;20360;-70
2021/06/22 04:38:03;;;;;;;16.02;9.85;;;;;;;;;;4991169;28;20726;-71
2021/06/22 04:40:29;;;;;;;17.50;9.80;;;;;;;;;;4996478;28;20278;-71
2021/06/22 04:42:55;;;;;;;19.10;10.10;;;;;;;;;;4992821;28;20223;-71
2021/06/22 04:45:21;;;;;;;21.88;10.30;;;;;;;;;;4994850;28;20224;-71
2021/06/22 04:47:46;;;;;;;22.17;11.20;;;;;;;;;;4992565;28;20206;-71
2021/06/22 04:50:12;;;;;;;17.70;10.02;;;;;;;;;;4995617;28;20379;-70
2021/06/22 04:52:37;;;;;;;20.33;10.55;;;;;;;;;;5000316;28;20190;-71
2021/06/22 04:55:11;;;;;;;20.17;10.55;;;;;;;;;;4291138;28;10000897;-70
2021/06/22 04:57:37;;;;;;;21.05;10.52;;;;;;;;;;4992682;28;20193;-70
2021/06/22 05:00:04;;;;;;;22.50;11.48;;;;;;;;;;4982609;28;20211;-71
2021/06/22 05:02:29;;;;;;;19.02;10.32;;;;;;;;;;4989480;28;20222;-70
2021/06/22 05:04:55;;;;;;;28.17;11.40;;;;;;;;;;4982441;28;20191;-70
2021/06/22 05:07:20;;;;;;;22.17;11.25;;;;;;;;;;4989563;28;20702;-70
2021/06/22 05:09:45;;;;;;;24.27;12.13;;;;;;;;;;4983967;28;20620;-71
2021/06/22 05:12:11;;;;;;;20.33;11.75;;;;;;;;;;4992500;28;20261;-69
2021/06/22 05:14:36;;;;;;;25.15;11.57;;;;;;;;;;4982380;28;20821;-71
2021/06/22 05:17:02;;;;;;;29.30;11.18;;;;;;;;;;4989759;28;20175;-70
2021/06/22 05:19:27;;;;;;;26.42;11.45;;;;;;;;;;4982910;28;20194;-72
2021/06/22 05:21:53;;;;;;;24.42;12.60;;;;;;;;;;4993253;28;20198;-70
2021/06/22 05:24:18;;;;;;;23.83;12.25;;;;;;;;;;4991660;28;20439;-71
2021/06/22 05:26:43;;;;;;;24.52;13.35;;;;;;;;;;4983669;28;20266;-70
2021/06/22 05:29:11;;;;;;;24.42;13.20;;;;;;;;;;5007579;28;20190;-71
2021/06/22 05:31:37;;;;;;;24.63;13.27;;;;;;;;;;4989877;28;20190;-71
2021/06/22 05:34:02;;;;;;;26.98;13.27;;;;;;;;;;4997086;28;20526;-69
2021/06/22 05:36:27;;;;;;;21.88;12.27;;;;;;;;;;4990541;28;20542;-70
2021/06/22 05:38:53;;;;;;;17.95;11.80;;;;;;;;;;4998240;28;20195;-71
2021/06/22 05:41:18;;;;;;;20.63;12.23;;;;;;;;;;4990082;28;20650;-68
2021/06/22 05:43:44;;;;;;;22.02;12.77;;;;;;;;;;4998827;28;20586;-71
2021/06/22 05:46:09;;;;;;;20.52;12.95;;;;;;;;;;5004033;28;20199;-68
2021/06/22 05:48:34;;;;;;;21.23;13.15;;;;;;;;;;4998335;28;20230;-71
2021/06/22 05:51:05;;;;;;;23.55;11.73;;;;;;;;;;4816145;28;10000315;-72
2021/06/22 05:53:30;;;;;;;24.58;13.23;;;;;;;;;;4992015;28;20822;-72
2021/06/22 05:55:55;;;;;;;23.55;12.68;;;;;;;;;;4992009;28;20337;-70
2021/06/22 05:58:21;;;;;;;23.48;12.80;;;;;;;;;;4997030;28;20595;-70
2021/06/22 06:00:46;;;;;;;22.33;13.15;;;;;;;;;;4996611;28;20281;-72
2021/06/22 06:03:11;;;;;;;25.02;13.48;;;;;;;;;;5003077;28;20278;-72
2021/06/22 06:05:37;;;;;;;23.20;12.95;;;;;;;;;;4997096;28;20186;-72
2021/06/22 06:08:02;;;;;;;26.17;12.82;;;;;;;;;;4986097;28;20237;-70
2021/06/22 06:10:28;;;;;;;25.80;12.57;;;;;;;;;;4994747;28;20183;-69
2021/06/22 06:12:53;;;;;;;27.55;13.35;;;;;;;;;;4984618;28;20273;-68
2021/06/22 06:15:19;;;;;;;23.73;12.77;;;;;;;;;;4991357;28;20205;-71
2021/06/22 06:17:45;;;;;;;24.40;13.88;;;;;;;;;;4988072;28;20306;-71
2021/06/22 06:20:12;;;;;;;24.27;12.15;;;;;;;;;;4994969;28;20282;-70
2021/06/22 06:22:39;;;;;;;19.58;11.95;;;;;;;;;;4988394;28;20218;-71
2021/06/22 06:25:05;;;;;;;26.02;13.52;;;;;;;;;;4993863;28;20196;-71
2021/06/22 06:30:22;;;;;;;21.13;13.93;;;;;;;;;;4993578;28;20245;-69
2021/06/22 06:32:49;;;;;;;23.75;12.90;;;;;;;;;;4995552;28;20183;-70
2021/06/22 06:35:15;;;;;;;26.98;12.68;;;;;;;;;;4987058;28;20194;-68
2021/06/22 06:37:41;;;;;;;27.98;13.88;;;;;;;;;;4997252;28;20190;-71
2021/06/22 06:40:08;;;;;;;28.10;13.63;;;;;;;;;;5001359;28;20253;-71
2021/06/22 06:42:34;;;;;;;22.80;13.23;;;;;;;;;;4994907;28;20207;-72
2021/06/22 06:44:59;;;;;;;24.60;13.23;;;;;;;;;;4986558;28;20183;-70
2021/06/22 06:47:24;;;;;;;21.38;13.50;;;;;;;;;;4996488;28;20278;-70
2021/06/22 06:49:50;;;;;;;23.38;13.40;;;;;;;;;;4981824;28;20230;-70
2021/06/22 06:52:15;;;;;;;22.98;13.10;;;;;;;;;;4998250;28;20181;-72
2021/06/22 06:54:41;;;;;;;18.75;12.88;;;;;;;;;;5003554;28;20186;-68
2021/06/22 06:57:07;;;;;;;25.75;13.27;;;;;;;;;;5013101;28;20194;-71
2021/06/22 06:59:32;;;;;;;19.48;12.35;;;;;;;;;;4987816;28;20274;-71
2021/06/22 07:01:58;;;;;;;23.65;12.07;;;;;;;;;;5011144;28;20202;-70
2021/06/22 07:04:23;;;;;;;21.77;13.25;;;;;;;;;;4997190;28;20657;-69
2021/06/22 07:06:48;;;;;;;21.33;13.18;;;;;;;;;;4984654;28;20187;-69
2021/06/22 07:09:14;;;;;;;19.00;12.55;;;;;;;;;;4995263;28;20236;-71
2021/06/22 07:11:40;;;;;;;23.63;12.63;;;;;;;;;;4990299;28;20187;-71
2021/06/22 07:14:06;;;;;;;16.88;12.70;;;;;;;;;;4996133;28;20195;-73
2021/06/22 07:16:31;;;;;;;19.85;12.65;;;;;;;;;;4990389;28;20195;-73
2021/06/22 07:18:56;;;;;;;19.80;12.52;;;;;;;;;;4996810;28;20630;-71
2021/06/22 07:21:22;;;;;;;21.58;12.40;;;;;;;;;;4984217;28;21019;-72
2021/06/22 07:23:47;;;;;;;19.35;11.77;;;;;;;;;;4996313;28;20670;-71
2021/06/22 07:26:13;;;;;;;20.17;12.65;;;;;;;;;;4985475;28;20782;-71
2021/06/22 07:28:39;;;;;;;23.50;12.20;;;;;;;;;;4998319;28;20191;-70
2021/06/22 07:31:07;;;;;;;18.30;11.85;;;;;;;;;;4993697;28;20182;-68
2021/06/22 07:33:33;;;;;;;20.92;12.57;;;;;;;;;;4987445;28;20190;-70
2021/06/22 07:35:58;;;;;;;19.90;11.73;;;;;;;;;;4995055;28;20194;-71
2021/06/22 07:38:24;;;;;;;21.58;11.45;;;;;;;;;;4983630;28;20197;-69
2021/06/22 07:40:49;;;;;;;20.38;11.35;;;;;;;;;;4994774;28;20197;-70
2021/06/22 07:43:15;;;;;;;16.35;11.05;;;;;;;;;;4988474;28;20384;-69
2021/06/22 07:45:41;;;;;;;18.92;11.30;;;;;;;;;;4995482;28;20226;-69
2021/06/22 07:48:07;;;;;;;14.85;9.95;;;;;;;;;;4986797;28;20241;-72
2021/06/22 07:50:33;;;;;;;24.52;11.38;;;;;;;;;;4995312;28;20646;-70
2021/06/22 07:53:01;;;;;;;19.33;10.85;;;;;;;;;;4986518;28;20189;-70
2021/06/22 07:55:26;;;;;;;19.08;11.20;;;;;;;;;;4995559;28;20199;-71
2021/06/22 07:57:52;;;;;;;16.08;10.15;;;;;;;;;;4987807;28;20190;-72
2021/06/22 08:00:43;;;;;;;20.80;10.93;;;;;;;;;;5001460;28;20831;-72
2021/06/22 08:03:14;;;;;;;17.17;10.60;;;;;;;;;;4990396;28;20246;-72
2021/06/22 08:05:40;;;;;;;19.67;9.70;;;;;;;;;;5000223;28;20197;-70
2021/06/22 08:08:07;;;;;;;12.73;9.75;;;;;;;;;;4997891;28;20211;-71
2021/06/22 08:10:33;;;;;;;16.42;9.38;;;;;;;;;;4991878;28;20720;-73
2021/06/22 08:12:59;;;;;;;16.10;9.30;;;;;;;;;;4997858;28;20179;-72
2021/06/22 08:15:28;;;;;;;19.80;9.30;;;;;;;;;;4985193;28;20221;-68
2021/06/22 08:17:55;;;;;;;14.13;8.27;;;;;;;;;;4995578;28;20632;-68
2021/06/22 08:20:21;;;;;;;17.02;9.82;;;;;;;;;;4987147;28;20198;-68
2021/06/22 08:22:52;;;;;;;15.55;8.55;;;;;;;;;;4993617;28;20577;-71
2021/06/22 08:25:19;;;;;;;17.25;9.13;;;;;;;;;;4982507;28;20237;-70
2021/06/22 08:27:45;;;;;;;20.80;9.52;;;;;;;;;;4995783;28;20194;-73
2021/06/22 08:30:11;;;;;;;17.25;8.85;;;;;;;;;;4987915;28;20213;-72
2021/06/22 08:32:36;;;;;;;13.38;8.15;;;;;;;;;;4996568;28;20175;-73
2021/06/22 08:35:02;;;;;;;17.38;8.93;;;;;;;;;;4988082;28;20240;-70
2021/06/22 08:37:27;;;;;;;17.85;8.10;;;;;;;;;;4994988;28;20236;-68
2021/06/22 08:39:53;;;;;;;14.60;8.75;;;;;;;;;;4990887;28;20680;-71
2021/06/22 08:42:20;;;;;;;18.88;8.68;;;;;;;;;;4988494;28;20657;-72
2021/06/22 08:44:48;;;;;;;15.65;8.45;;;;;;;;;;4997087;28;20735;-70
2021/06/22 08:47:14;;;;;;;17.33;7.68;;;;;;;;;;4984759;28;20191;-70
2021/06/22 08:49:41;;;;;;;15.77;8.18;;;;;;;;;;4994965;28;20789;-69
2021/06/22 08:52:08;;;;;;;14.85;8.15;;;;;;;;;;4983999;28;20684;-70
2021/06/22 08:54:34;;;;;;;12.70;7.78;;;;;;;;;;4997990;28;20182;-72
2021/06/22 08:57:00;;;;;;;10.27;7.57;;;;;;;;;;4985061;28;20649;-73
2021/06/22 08:59:26;;;;;;;14.45;7.70;;;;;;;;;;4996401;28;20187;-70
2021/06/22 09:01:51;;;;;;;11.02;6.90;;;;;;;;;;4985295;28;20276;-72
2021/06/22 09:04:17;;;;;;;12.80;7.20;;;;;;;;;;4996561;28;20186;-72
2021/06/22 09:06:43;;;;;;;17.98;7.53;;;;;;;;;;4987261;28;20289;-72
2021/06/22 09:09:10;;;;;;;16.30;7.88;;;;;;;;;;4994013;28;20245;-72
2021/06/22 09:11:36;;;;;;;11.88;7.28;;;;;;;;;;4988308;28;20200;-72
2021/06/22 09:14:04;;;;;;;10.90;6.60;;;;;;;;;;4995749;28;20173;-71
2021/06/22 09:16:30;;;;;;;10.50;7.03;;;;;;;;;;4992754;28;20190;-72
2021/06/22 09:19:10;;;;;;;11.43;7.05;;;;;;;;;;4987080;28;20202;-71
2021/06/22 09:21:44;;;;;;;13.90;6.93;;;;;;;;;;4995799;28;20289;-72
2021/06/22 09:24:20;;;;;;;12.82;6.85;;;;;;;;;;4989013;28;20206;-72
2021/06/22 09:26:48;;;;;;;11.60;6.90;;;;;;;;;;5012807;28;20220;-71
2021/06/22 09:29:17;;;;;;;9.27;6.93;;;;;;;;;;4989955;28;20530;-72
2021/06/22 09:31:54;;;;;;;12.43;6.88;;;;;;;;;;4998630;28;20288;-71
2021/06/22 09:34:20;;;;;;;13.88;6.15;;;;;;;;;;4988812;28;20225;-69
2021/06/22 09:36:52;;;;;;;14.00;6.78;;;;;;;;;;4998682;28;20245;-70
2021/06/22 09:39:20;;;;;;;12.35;6.07;;;;;;;;;;4989002;28;20194;-71
2021/06/22 09:41:46;;;;;;;16.38;6.70;;;;;;;;;;4997418;28;20615;-73
2021/06/22 09:44:17;;;;;;;13.40;6.75;;;;;;;;;;4989623;28;20403;-69
2021/06/22 09:46:45;;;;;;;11.30;6.45;;;;;;;;;;4996474;28;20198;-72
2021/06/22 09:49:22;;;;;;;15.55;6.47;;;;;;;;;;4987724;28;20223;-71
2021/06/22 09:54:35;;;;;;;12.23;5.97;;;;;;;;;;4990198;28;20199;-71
2021/06/22 09:57:13;;;;;;;10.52;5.20;;;;;;;;;;4997263;28;20198;-69
2021/06/22 10:00:02;;;;;;;16.17;5.47;;;;;;;;;;4991442;28;20186;-69
2021/06/22 10:02:28;;;;;;;10.75;5.55;;;;;;;;;;4998500;28;20595;-69
2021/06/22 10:05:02;;;;;;;9.82;5.53;;;;;;;;;;4990273;28;20190;-71
2021/06/22 10:07:29;;;;;;;12.43;5.95;;;;;;;;;;4997838;28;20252;-73
2021/06/22 10:09:59;;;;;;;15.20;5.97;;;;;;;;;;4991231;28;20269;-71
2021/06/22 10:12:26;;;;;;;8.38;5.38;;;;;;;;;;4997045;28;20195;-71
2021/06/22 10:15:00;;;;;;;13.93;6.05;;;;;;;;;;4997631;28;20648;-68
2021/06/22 10:17:26;;;;;;;11.23;5.75;;;;;;;;;;4998112;28;20203;-72
2021/06/22 10:19:57;;;;;;;11.95;6.13;;;;;;;;;;4998985;28;20311;-72
2021/06/22 10:22:25;;;;;;;10.95;5.78;;;;;;;;;;4989554;28;20206;-72
2021/06/22 10:24:51;;;;;;;11.43;5.45;;;;;;;;;;4998383;28;20191;-68
2021/06/22 10:27:19;;;;;;;8.25;5.20;;;;;;;;;;4987591;28;20222;-68
2021/06/22 10:29:53;;;;;;;9.50;4.93;;;;;;;;;;4998845;28;20590;-68
2021/06/22 10:32:20;;;;;;;8.80;4.97;;;;;;;;;;4989113;28;20529;-72
2021/06/22 10:34:50;;;;;;;9.15;4.80;;;;;;;;;;4997831;28;20186;-70
2021/06/22 10:37:24;;;;;;;10.75;5.03;;;;;;;;;;4988642;28;20252;-71
2021/06/22 10:39:58;;;;;;;10.50;4.85;;;;;;;;;;5011133;28;20213;-70
2021/06/22 10:42:24;;;;;;;9.77;5.15;;;;;;;;;;4987246;28;20219;-68
2021/06/22 10:44:51;;;;;;;12.23;4.88;;;;;;;;;;4997822;28;20544;-70
2021/06/22 10:47:27;;;;;;;9.70;4.53;;;;;;;;;;4989869;28;20240;-70
2021/06/22 10:50:13;;;;;;;14.40;4.55;;;;;;;;;;4999471;28;20704;-69
2021/06/22 10:52:49;;;;;;;14.85;4.85;;;;;;;;;;4989003;28;20206;-71
2021/06/22 10:55:21;;;;;;;7.50;4.03;;;;;;;;;;4995864;28;20179;-70
2021/06/22 10:58:08;;;;;;;8.55;4.97;;;;;;;;;;4988324;28;20642;-70
2021/06/22 11:00:43;;;;;;;10.50;4.45;;;;;;;;;;4997686;28;20662;-71
2021/06/22 11:03:21;;;;;;;7.88;4.20;;;;;;;;;;4988412;28;20804;-72
2021/06/22 11:05:48;;;;;;;7.20;3.83;;;;;;;;;;4997930;28;20167;-70
2021/06/22 11:08:13;;;;;;;12.07;5.22;;;;;;;;;;4989279;28;22005;-68
2021/06/22 11:10:41;;;;;;;10.82;5.15;;;;;;;;;;4996612;28;20182;-72
2021/06/22 11:13:07;;;;;;;10.00;4.47;;;;;;;;;;4985818;28;20245;-72
2021/06/22 11:15:53;;;;;;;12.10;4.90;;;;;;;;;;4994609;28;20182;-70
2021/06/22 11:18:19;;;;;;;10.98;5.03;;;;;;;;;;4986865;28;20371;-71
2021/06/22 11:20:53;;;;;;;9.80;5.10;;;;;;;;;;4994970;28;20282;-72
2021/06/22 11:23:23;;;;;;;9.32;4.55;;;;;;;;;;4992984;28;20222;-71
2021/06/22 11:25:52;;;;;;;9.93;5.25;;;;;;;;;;4985545;28;20202;-69
2021/06/22 11:28:21;;;;;;;14.82;4.82;;;;;;;;;;4994540;28;20670;-71
2021/06/22 11:30:53;;;;;;;12.35;4.38;;;;;;;;;;4990212;28;20194;-73
2021/06/22 11:33:43;;;;;;;11.00;4.25;;;;;;;;;;4992807;28;20197;-72
2021/06/22 11:36:15;;;;;;;6.60;3.78;;;;;;;;;;4988242;28;20197;-72
2021/06/22 11:38:40;;;;;;;7.95;3.65;;;;;;;;;;4993780;28;20198;-75
2021/06/22 11:41:10;;;;;;;7.70;3.70;;;;;;;;;;5002302;28;20301;-73
2021/06/22 11:43:36;;;;;;;13.57;4.57;;;;;;;;;;4994385;28;20515;-71
2021/06/22 11:46:30;;;;;;;8.07;3.97;;;;;;;;;;4988655;28;20195;-71
2021/06/22 11:49:00;;;;;;;8.85;4.80;;;;;;;;;;4996753;28;20226;-72
2021/06/22 11:52:04;;;;;;;9.68;4.22;;;;;;;;;;4984924;28;20198;-72
2021/06/22 11:54:51;;;;;;;9.85;4.30;;;;;;;;;;4995545;28;20198;-70
2021/06/22 11:57:19;;;;;;;10.85;4.63;;;;;;;;;;4988060;28;20206;-74
2021/06/22 11:59:45;;;;;;;13.68;4.70;;;;;;;;;;4994162;28;20194;-72
2021/06/22 12:02:11;;;;;;;13.05;4.95;;;;;;;;;;5004806;28;20213;-71
2021/06/22 12:04:37;;;;;;;11.85;4.90;;;;;;;;;;4994763;28;20222;-70
2021/06/22 12:07:03;;;;;;;11.60;5.00;;;;;;;;;;4985300;28;20602;-68
2021/06/22 12:09:28;;;;;;;14.65;4.47;;;;;;;;;;4991121;28;20251;-70
2021/06/22 12:11:57;;;;;;;7.57;3.92;;;;;;;;;;4986995;28;20186;-73
2021/06/22 12:14:23;;;;;;;11.65;4.00;;;;;;;;;;4995928;28;20651;-69
2021/06/22 12:16:49;;;;;;;9.00;4.10;;;;;;;;;;5003456;28;20191;-69
2021/06/22 12:19:17;;;;;;;9.32;3.95;;;;;;;;;;4994189;28;20191;-72
2021/06/22 12:21:47;;;;;;;10.93;3.53;;;;;;;;;;5002645;28;20233;-72
2021/06/22 12:24:15;;;;;;;12.15;3.45;;;;;;;;;;4992721;28;20674;-72
2021/06/22 12:26:43;;;;;;;14.07;3.95;;;;;;;;;;4996875;28;20187;-71
2021/06/22 12:29:20;;;;;;;10.98;3.80;;;;;;;;;;4986270;28;20203;-69
2021/06/22 12:31:53;;;;;;;10.30;3.97;;;;;;;;;;4995583;28;20182;-72
2021/06/22 12:34:20;;;;;;;12.52;3.97;;;;;;;;;;4988428;28;20289;-71
2021/06/22 12:36:46;;;;;;;9.38;3.78;;;;;;;;;;4997409;28;20179;-71
2021/06/22 12:39:12;;;;;;;8.68;3.97;;;;;;;;;;4984680;28;20228;-72
2021/06/22 12:41:37;;;;;;;9.25;3.90;;;;;;;;;;4302378;28;10000855;-72
2021/06/22 12:44:08;;;;;;;12.02;3.97;;;;;;;;;;4979210;28;20210;-72
2021/06/22 12:46:42;;;;;;;9.45;3.63;;;;;;;;;;4991483;28;20179;-73
2021/06/22 12:49:13;;;;;;;10.98;3.60;;;;;;;;;;4995886;28;20226;-73
2021/06/22 12:51:47;;;;;;;9.95;4.30;;;;;;;;;;4988841;28;20597;-69
2021/06/22 12:54:14;;;;;;;9.82;3.50;;;;;;;;;;4979786;28;20202;-70
2021/06/22 12:56:55;;;;;;;10.07;3.55;;;;;;;;;;4993752;28;20187;-72
2021/06/22 12:59:22;;;;;;;8.63;3.38;;;;;;;;;;4983847;28;20221;-68
2021/06/22 13:01:48;;;;;;;7.57;3.30;;;;;;;;;;4996650;28;20341;-72
2021/06/22 13:04:16;;;;;;;6.60;3.00;;;;;;;;;;4986129;28;20268;-73
2021/06/22 13:06:43;;;;;;;6.20;2.83;;;;;;;;;;4995802;28;20198;-71
2021/06/22 13:09:11;;;;;;;7.13;2.67;;;;;;;;;;4990763;28;20227;-74
2021/06/22 13:11:51;;;;;;;7.45;2.97;;;;;;;;;;4994963;28;20183;-72
2021/06/22 13:14:19;;;;;;;7.47;2.70;;;;;;;;;;4995853;28;20190;-72
2021/06/22 13:17:01;;;;;;;11.18;3.42;;;;;;;;;;4987251;28;20195;-73
2021/06/22 13:19:31;;;;;;;8.98;2.85;;;;;;;;;;4994797;28;20669;-73
2021/06/22 13:22:02;;;;;;;11.45;3.20;;;;;;;;;;4989900;28;20186;-72
2021/06/22 13:24:28;;;;;;;10.43;3.08;;;;;;;;;;4990748;28;20271;-72
2021/06/22 13:26:54;;;;;;;13.30;3.83;;;;;;;;;;4988556;28;20552;-73
2021/06/22 13:29:19;;;;;;;10.23;3.78;;;;;;;;;;4993133;28;20252;-72
2021/06/22 13:31:53;;;;;;;9.48;3.30;;;;;;;;;;4989501;28;20586;-70
2021/06/22 13:34:25;;;;;;;8.90;3.17;;;;;;;;;;4994950;28;20183;-73
2021/06/22 13:36:51;;;;;;;11.95;3.90;;;;;;;;;;4986601;28;20197;-72
2021/06/22 13:39:17;;;;;;;9.30;3.22;;;;;;;;;;4994487;28;20266;-74
2021/06/22 13:41:48;;;;;;;8.05;3.20;;;;;;;;;;4985092;28;20333;-72
2021/06/22 13:44:14;;;;;;;7.63;3.30;;;;;;;;;;4994107;28;20219;-72
2021/06/22 13:46:39;;;;;;;8.68;3.50;;;;;;;;;;4986395;28;20631;-69
2021/06/22 13:49:05;;;;;;;11.80;3.63;;;;;;;;;;4993252;28;20257;-73
2021/06/22 13:51:33;;;;;;;11.10;3.38;;;;;;;;;;4987609;28;20192;-68
2021/06/22 13:54:07;;;;;;;11.05;3.58;;;;;;;;;;4995987;28;20675;-72
2021/06/22 13:56:33;;;;;;;16.70;4.15;;;;;;;;;;4997616;28;20612;-69
2021/06/22 13:58:59;;;;;;;11.63;3.65;;;;;;;;;;4986713;28;20282;-75
2021/06/22 14:01:24;;;;;;;8.65;3.80;;;;;;;;;;5007004;28;20210;-74
2021/06/22 14:03:50;;;;;;;6.47;2.88;;;;;;;;;;4981507;28;20690;-73
2021/06/22 14:06:16;;;;;;;9.80;3.22;;;;;;;;;;4989330;28;20597;-73
2021/06/22 14:08:41;;;;;;;7.85;3.63;;;;;;;;;;4997042;28;21589;-73
2021/06/22 14:11:07;;;;;;;11.35;3.53;;;;;;;;;;5005724;28;20261;-73
2021/06/22 14:13:32;;;;;;;9.60;3.35;;;;;;;;;;4984831;28;20191;-72
2021/06/22 14:15:59;;;;;;;10.68;3.78;;;;;;;;;;4991992;28;20226;-73
2021/06/22 14:18:25;;;;;;;9.98;3.83;;;;;;;;;;4985148;28;20194;-70
2021/06/22 14:20:52;;;;;;;9.75;3.40;;;;;;;;;;4989685;28;20504;-74
2021/06/22 14:23:17;;;;;;;8.43;3.47;;;;;;;;;;4982298;28;20290;-71
2021/06/22 14:25:44;;;;;;;7.95;3.60;;;;;;;;;;4993950;28;20542;-71
2021/06/22 14:28:12;;;;;;;9.45;3.63;;;;;;;;;;5008083;28;20254;-73
2021/06/22 14:30:38;;;;;;;11.02;3.53;;;;;;;;;;4984843;28;20282;-70
2021/06/22 14:33:03;;;;;;;12.98;3.88;;;;;;;;;;4995113;28;20213;-73